sensor_id;sensor_type;location;lat;lon;timestamp;temperature;humidity
21992;DHT22;11160;51.576;0.194;2022-08-11T00:01:27;24.80;60.60
21992;DHT22;11160;51.576;0.194;2022-08-11T00:04:00;24.80;61.10
21992;DHT22;11160;51.576;0.194;2022-08-11T00:06:36;24.70;60.80
21992;DHT22;11160;51.576;0.194;2022-08-11T00:09:07;24.70;60.80
21992;DHT22;11160;51.576;0.194;2022-08-11T00:11:38;24.70;60.90
21992;DHT22;11160;51.576;0.194;2022-08-11T00:14:18;24.70;61.00
21992;DHT22;11160;51.576;0.194;2022-08-11T00:19:36;24.70;61.20
21992;DHT22;11160;51.576;0.194;2022-08-11T00:22:24;24.70;61.20
21992;DHT22;11160;51.576;0.194;2022-08-11T00:24:52;24.70;61.20
21992;DHT22;11160;51.576;0.194;2022-08-11T00:27:37;24.60;61.10
21992;DHT22;11160;51.576;0.194;2022-08-11T00:30:07;24.70;61.70
21992;DHT22;11160;51.576;0.194;2022-08-11T00:32:37;24.60;61.40
21992;DHT22;11160;51.576;0.194;2022-08-11T00:35:07;24.60;61.50
21992;DHT22;11160;51.576;0.194;2022-08-11T00:37:58;24.60;61.60
21992;DHT22;11160;51.576;0.194;2022-08-11T00:40:44;24.60;61.60
21992;DHT22;11160;51.576;0.194;2022-08-11T00:43:38;24.60;61.80
21992;DHT22;11160;51.576;0.194;2022-08-11T00:48:58;24.50;61.90
21992;DHT22;11160;51.576;0.194;2022-08-11T00:54:42;24.50;62.00
21992;DHT22;11160;51.576;0.194;2022-08-11T01:00:20;24.50;62.40
21992;DHT22;11160;51.576;0.194;2022-08-11T01:13:44;24.40;62.30
21992;DHT22;11160;51.576;0.194;2022-08-11T01:28:02;24.30;62.70
21992;DHT22;11160;51.576;0.194;2022-08-11T01:30:57;24.30;62.90
21992;DHT22;11160;51.576;0.194;2022-08-11T01:39:36;24.30;63.10
21992;DHT22;11160;51.576;0.194;2022-08-11T01:50:53;24.20;63.20
21992;DHT22;11160;51.576;0.194;2022-08-11T01:58:43;24.20;63.40
21992;DHT22;11160;51.576;0.194;2022-08-11T02:15:28;24.10;64.00
21992;DHT22;11160;51.576;0.194;2022-08-11T02:18:20;24.10;64.00
21992;DHT22;11160;51.576;0.194;2022-08-11T02:20:57;24.00;64.10
21992;DHT22;11160;51.576;0.194;2022-08-11T02:26:47;24.00;64.10
21992;DHT22;11160;51.576;0.194;2022-08-11T02:29:46;24.00;64.10
21992;DHT22;11160;51.576;0.194;2022-08-11T02:32:19;24.00;64.10
21992;DHT22;11160;51.576;0.194;2022-08-11T02:41:16;23.90;64.50
21992;DHT22;11160;51.576;0.194;2022-08-11T02:44:10;23.90;64.40
21992;DHT22;11160;51.576;0.194;2022-08-11T02:49:41;23.90;64.50
21992;DHT22;11160;51.576;0.194;2022-08-11T02:52:46;23.90;64.60
21992;DHT22;11160;51.576;0.194;2022-08-11T02:55:22;23.90;64.80
21992;DHT22;11160;51.576;0.194;2022-08-11T03:01:19;23.80;64.90
21992;DHT22;11160;51.576;0.194;2022-08-11T03:03:59;23.80;64.80
21992;DHT22;11160;51.576;0.194;2022-08-11T03:06:49;23.80;65.00
21992;DHT22;11160;51.576;0.194;2022-08-11T03:09:45;23.80;64.90
21992;DHT22;11160;51.576;0.194;2022-08-11T03:12:27;23.80;64.80
21992;DHT22;11160;51.576;0.194;2022-08-11T03:15:27;23.80;65.30
21992;DHT22;11160;51.576;0.194;2022-08-11T03:18:36;23.80;65.30
21992;DHT22;11160;51.576;0.194;2022-08-11T03:26:42;23.70;65.40
21992;DHT22;11160;51.576;0.194;2022-08-11T03:29:34;23.70;65.40
21992;DHT22;11160;51.576;0.194;2022-08-11T03:35:41;23.60;65.50
21992;DHT22;11160;51.576;0.194;2022-08-11T03:38:14;23.60;65.60
21992;DHT22;11160;51.576;0.194;2022-08-11T03:47:02;23.60;65.80
21992;DHT22;11160;51.576;0.194;2022-08-11T03:58:20;23.50;66.30
21992;DHT22;11160;51.576;0.194;2022-08-11T04:12:51;23.40;66.70
21992;DHT22;11160;51.576;0.194;2022-08-11T04:18:25;23.40;66.50
21992;DHT22;11160;51.576;0.194;2022-08-11T04:20:58;23.40;66.60
21992;DHT22;11160;51.576;0.194;2022-08-11T04:27:24;23.40;66.90
21992;DHT22;11160;51.576;0.194;2022-08-11T04:30:07;23.30;66.80
21992;DHT22;11160;51.576;0.194;2022-08-11T04:41:52;23.30;67.20
21992;DHT22;11160;51.576;0.194;2022-08-11T04:44:52;23.30;67.30
21992;DHT22;11160;51.576;0.194;2022-08-11T04:57:01;23.20;67.50
21992;DHT22;11160;51.576;0.194;2022-08-11T05:00:06;23.20;67.30
21992;DHT22;11160;51.576;0.194;2022-08-11T05:03:34;23.20;67.70
21992;DHT22;11160;51.576;0.194;2022-08-11T05:15:00;23.10;67.80
21992;DHT22;11160;51.576;0.194;2022-08-11T05:18:18;23.10;68.10
21992;DHT22;11160;51.576;0.194;2022-08-11T05:21:10;23.10;68.00
21992;DHT22;11160;51.576;0.194;2022-08-11T05:24:20;23.10;67.90
21992;DHT22;11160;51.576;0.194;2022-08-11T05:27:09;23.10;68.10
21992;DHT22;11160;51.576;0.194;2022-08-11T05:30:06;23.10;68.10
21992;DHT22;11160;51.576;0.194;2022-08-11T05:35:59;23.10;68.20
21992;DHT22;11160;51.576;0.194;2022-08-11T05:38:33;23.10;68.20
21992;DHT22;11160;51.576;0.194;2022-08-11T05:41:22;23.10;68.30
21992;DHT22;11160;51.576;0.194;2022-08-11T05:44:09;23.00;68.30
21992;DHT22;11160;51.576;0.194;2022-08-11T05:46:56;23.00;68.20
21992;DHT22;11160;51.576;0.194;2022-08-11T05:49:49;23.00;68.30
21992;DHT22;11160;51.576;0.194;2022-08-11T05:52:44;23.00;68.50
21992;DHT22;11160;51.576;0.194;2022-08-11T05:55:41;23.00;68.40
21992;DHT22;11160;51.576;0.194;2022-08-11T05:58:38;23.00;68.50
21992;DHT22;11160;51.576;0.194;2022-08-11T06:01:10;23.00;68.70
21992;DHT22;11160;51.576;0.194;2022-08-11T06:03:42;23.00;68.70
21992;DHT22;11160;51.576;0.194;2022-08-11T06:06:29;23.00;68.80
21992;DHT22;11160;51.576;0.194;2022-08-11T06:08:57;23.00;68.80
21992;DHT22;11160;51.576;0.194;2022-08-11T06:11:25;23.00;69.00
21992;DHT22;11160;51.576;0.194;2022-08-11T06:14:10;23.00;69.00
21992;DHT22;11160;51.576;0.194;2022-08-11T06:16:40;23.00;69.10
21992;DHT22;11160;51.576;0.194;2022-08-11T06:19:09;23.10;69.20
21992;DHT22;11160;51.576;0.194;2022-08-11T06:21:36;23.00;69.20
21992;DHT22;11160;51.576;0.194;2022-08-11T06:24:13;23.10;69.20
21992;DHT22;11160;51.576;0.194;2022-08-11T06:26:47;23.00;69.40
21992;DHT22;11160;51.576;0.194;2022-08-11T06:29:36;23.10;69.50
21992;DHT22;11160;51.576;0.194;2022-08-11T06:32:14;23.00;69.40
21992;DHT22;11160;51.576;0.194;2022-08-11T06:43:20;23.10;70.70
21992;DHT22;11160;51.576;0.194;2022-08-11T06:46:04;23.10;70.20
21992;DHT22;11160;51.576;0.194;2022-08-11T06:48:34;23.10;70.10
21992;DHT22;11160;51.576;0.194;2022-08-11T06:51:10;23.10;69.90
21992;DHT22;11160;51.576;0.194;2022-08-11T06:53:52;23.10;70.00
21992;DHT22;11160;51.576;0.194;2022-08-11T06:56:35;23.20;70.30
21992;DHT22;11160;51.576;0.194;2022-08-11T06:59:43;23.20;70.40
21992;DHT22;11160;51.576;0.194;2022-08-11T07:02:33;23.30;70.30
21992;DHT22;11160;51.576;0.194;2022-08-11T07:05:30;23.30;70.40
21992;DHT22;11160;51.576;0.194;2022-08-11T07:11:58;23.40;70.20
21992;DHT22;11160;51.576;0.194;2022-08-11T07:14:55;23.50;71.30
21992;DHT22;11160;51.576;0.194;2022-08-11T07:17:49;23.50;72.30
21992;DHT22;11160;51.576;0.194;2022-08-11T07:20:40;23.60;74.00
21992;DHT22;11160;51.576;0.194;2022-08-11T07:23:30;23.60;74.90
21992;DHT22;11160;51.576;0.194;2022-08-11T07:26:19;23.70;75.50
21992;DHT22;11160;51.576;0.194;2022-08-11T07:29:06;23.80;75.80
21992;DHT22;11160;51.576;0.194;2022-08-11T07:31:47;23.90;76.30
21992;DHT22;11160;51.576;0.194;2022-08-11T07:34:23;23.90;77.40
21992;DHT22;11160;51.576;0.194;2022-08-11T07:36:59;24.00;77.20
21992;DHT22;11160;51.576;0.194;2022-08-11T07:39:30;24.00;77.90
21992;DHT22;11160;51.576;0.194;2022-08-11T07:41:59;24.10;77.90
21992;DHT22;11160;51.576;0.194;2022-08-11T07:44:31;24.10;78.10
21992;DHT22;11160;51.576;0.194;2022-08-11T07:47:18;24.20;78.30
21992;DHT22;11160;51.576;0.194;2022-08-11T07:50:06;24.30;78.50
21992;DHT22;11160;51.576;0.194;2022-08-11T07:52:53;24.30;78.60
21992;DHT22;11160;51.576;0.194;2022-08-11T07:55:22;24.40;78.80
21992;DHT22;11160;51.576;0.194;2022-08-11T07:58:12;24.40;79.20
21992;DHT22;11160;51.576;0.194;2022-08-11T08:01:08;24.50;79.20
21992;DHT22;11160;51.576;0.194;2022-08-11T08:03:58;24.50;79.30
21992;DHT22;11160;51.576;0.194;2022-08-11T08:06:43;24.60;79.40
21992;DHT22;11160;51.576;0.194;2022-08-11T08:09:33;24.60;79.40
21992;DHT22;11160;51.576;0.194;2022-08-11T08:12:21;24.70;80.30
21992;DHT22;11160;51.576;0.194;2022-08-11T08:15:09;24.80;80.30
21992;DHT22;11160;51.576;0.194;2022-08-11T08:17:57;24.80;80.10
21992;DHT22;11160;51.576;0.194;2022-08-11T08:20:45;24.80;80.30
21992;DHT22;11160;51.576;0.194;2022-08-11T08:23:13;25.00;81.50
21992;DHT22;11160;51.576;0.194;2022-08-11T08:25:43;25.10;79.60
21992;DHT22;11160;51.576;0.194;2022-08-11T08:28:14;25.10;80.20
21992;DHT22;11160;51.576;0.194;2022-08-11T08:30:43;25.20;80.40
21992;DHT22;11160;51.576;0.194;2022-08-11T08:33:22;25.30;79.30
21992;DHT22;11160;51.576;0.194;2022-08-11T08:35:58;25.40;79.30
21992;DHT22;11160;51.576;0.194;2022-08-11T08:38:51;25.40;79.50
21992;DHT22;11160;51.576;0.194;2022-08-11T08:41:29;25.50;79.20
21992;DHT22;11160;51.576;0.194;2022-08-11T08:44:03;25.50;78.60
21992;DHT22;11160;51.576;0.194;2022-08-11T08:46:57;25.50;78.60
21992;DHT22;11160;51.576;0.194;2022-08-11T08:49:32;25.50;77.80
21992;DHT22;11160;51.576;0.194;2022-08-11T08:52:08;25.60;77.90
21992;DHT22;11160;51.576;0.194;2022-08-11T08:55:02;25.70;77.70
21992;DHT22;11160;51.576;0.194;2022-08-11T08:57:32;25.70;78.30
21992;DHT22;11160;51.576;0.194;2022-08-11T09:00:06;25.70;76.80
21992;DHT22;11160;51.576;0.194;2022-08-11T09:02:41;25.70;76.60
21992;DHT22;11160;51.576;0.194;2022-08-11T09:05:08;25.80;76.50
21992;DHT22;11160;51.576;0.194;2022-08-11T09:07:37;25.80;76.20
21992;DHT22;11160;51.576;0.194;2022-08-11T09:10:07;25.90;76.80
21992;DHT22;11160;51.576;0.194;2022-08-11T09:12:35;25.90;76.40
21992;DHT22;11160;51.576;0.194;2022-08-11T09:15:05;26.00;76.00
21992;DHT22;11160;51.576;0.194;2022-08-11T09:17:42;26.10;75.10
21992;DHT22;11160;51.576;0.194;2022-08-11T09:20:22;26.20;75.30
21992;DHT22;11160;51.576;0.194;2022-08-11T09:22:55;26.20;73.10
21992;DHT22;11160;51.576;0.194;2022-08-11T09:26:02;26.30;72.50
21992;DHT22;11160;51.576;0.194;2022-08-11T09:28:57;26.40;71.20
21992;DHT22;11160;51.576;0.194;2022-08-11T09:31:25;26.50;70.80
21992;DHT22;11160;51.576;0.194;2022-08-11T09:33:54;26.50;69.90
21992;DHT22;11160;51.576;0.194;2022-08-11T09:36:21;26.60;69.30
21992;DHT22;11160;51.576;0.194;2022-08-11T09:39:08;26.60;69.60
21992;DHT22;11160;51.576;0.194;2022-08-11T09:42:01;26.70;69.20
21992;DHT22;11160;51.576;0.194;2022-08-11T09:44:48;26.80;69.20
21992;DHT22;11160;51.576;0.194;2022-08-11T09:47:27;26.80;68.90
21992;DHT22;11160;51.576;0.194;2022-08-11T09:49:58;26.80;69.00
21992;DHT22;11160;51.576;0.194;2022-08-11T09:52:37;26.90;68.90
21992;DHT22;11160;51.576;0.194;2022-08-11T09:55:05;26.90;68.10
21992;DHT22;11160;51.576;0.194;2022-08-11T09:57:44;27.00;68.20
21992;DHT22;11160;51.576;0.194;2022-08-11T10:00:35;27.00;68.10
21992;DHT22;11160;51.576;0.194;2022-08-11T10:03:16;27.10;67.70
21992;DHT22;11160;51.576;0.194;2022-08-11T10:05:46;27.10;67.40
21992;DHT22;11160;51.576;0.194;2022-08-11T10:08:37;27.20;66.80
21992;DHT22;11160;51.576;0.194;2022-08-11T10:11:06;27.20;66.50
21992;DHT22;11160;51.576;0.194;2022-08-11T10:13:38;27.20;65.30
21992;DHT22;11160;51.576;0.194;2022-08-11T10:16:47;27.30;65.40
21992;DHT22;11160;51.576;0.194;2022-08-11T10:19:16;27.30;65.10
21992;DHT22;11160;51.576;0.194;2022-08-11T10:21:49;27.30;64.40
21992;DHT22;11160;51.576;0.194;2022-08-11T10:24:37;27.30;65.80
21992;DHT22;11160;51.576;0.194;2022-08-11T10:27:23;27.40;65.70
21992;DHT22;11160;51.576;0.194;2022-08-11T10:30:11;27.40;64.00
21992;DHT22;11160;51.576;0.194;2022-08-11T10:32:57;27.50;64.40
21992;DHT22;11160;51.576;0.194;2022-08-11T10:36:04;27.50;64.50
21992;DHT22;11160;51.576;0.194;2022-08-11T10:38:43;27.60;63.80
21992;DHT22;11160;51.576;0.194;2022-08-11T10:41:12;27.60;62.60
21992;DHT22;11160;51.576;0.194;2022-08-11T10:43:59;27.60;64.00
21992;DHT22;11160;51.576;0.194;2022-08-11T10:46:30;27.70;63.60
21992;DHT22;11160;51.576;0.194;2022-08-11T10:49:17;27.70;63.20
21992;DHT22;11160;51.576;0.194;2022-08-11T10:51:46;27.80;62.60
21992;DHT22;11160;51.576;0.194;2022-08-11T10:54:33;27.80;62.30
21992;DHT22;11160;51.576;0.194;2022-08-11T10:57:19;27.90;62.50
21992;DHT22;11160;51.576;0.194;2022-08-11T11:00:06;27.90;62.00
21992;DHT22;11160;51.576;0.194;2022-08-11T11:02:35;28.00;61.60
21992;DHT22;11160;51.576;0.194;2022-08-11T11:05:14;28.00;61.20
21992;DHT22;11160;51.576;0.194;2022-08-11T11:11:12;28.10;60.70
21992;DHT22;11160;51.576;0.194;2022-08-11T11:13:49;28.10;59.30
21992;DHT22;11160;51.576;0.194;2022-08-11T11:16:38;28.20;59.30
21992;DHT22;11160;51.576;0.194;2022-08-11T11:19:25;28.20;59.70
21992;DHT22;11160;51.576;0.194;2022-08-11T11:21:55;28.30;59.40
21992;DHT22;11160;51.576;0.194;2022-08-11T11:27:58;28.40;58.90
21992;DHT22;11160;51.576;0.194;2022-08-11T11:30:35;28.40;57.30
21992;DHT22;11160;51.576;0.194;2022-08-11T11:33:37;28.40;58.20
21992;DHT22;11160;51.576;0.194;2022-08-11T11:39:25;28.50;57.10
21992;DHT22;11160;51.576;0.194;2022-08-11T11:42:01;28.60;56.90
21992;DHT22;11160;51.576;0.194;2022-08-11T11:44:30;28.70;57.00
21992;DHT22;11160;51.576;0.194;2022-08-11T11:46:59;28.80;56.20
21992;DHT22;11160;51.576;0.194;2022-08-11T11:49:29;28.90;56.10
21992;DHT22;11160;51.576;0.194;2022-08-11T11:51:59;29.00;56.60
21992;DHT22;11160;51.576;0.194;2022-08-11T11:54:30;29.00;56.10
21992;DHT22;11160;51.576;0.194;2022-08-11T11:57:01;29.10;54.90
21992;DHT22;11160;51.576;0.194;2022-08-11T11:59:50;29.20;55.50
21992;DHT22;11160;51.576;0.194;2022-08-11T12:02:36;29.50;55.50
21992;DHT22;11160;51.576;0.194;2022-08-11T12:05:04;29.70;53.70
21992;DHT22;11160;51.576;0.194;2022-08-11T12:07:32;30.10;53.10
21992;DHT22;11160;51.576;0.194;2022-08-11T12:13:16;30.70;51.30
21992;DHT22;11160;51.576;0.194;2022-08-11T12:16:14;30.80;50.80
21992;DHT22;11160;51.576;0.194;2022-08-11T12:19:07;30.90;50.60
21992;DHT22;11160;51.576;0.194;2022-08-11T12:21:38;30.90;49.70
21992;DHT22;11160;51.576;0.194;2022-08-11T12:24:29;30.90;50.10
21992;DHT22;11160;51.576;0.194;2022-08-11T12:27:15;31.00;50.20
21992;DHT22;11160;51.576;0.194;2022-08-11T12:30:05;31.20;50.30
21992;DHT22;11160;51.576;0.194;2022-08-11T12:32:35;31.40;49.40
21992;DHT22;11160;51.576;0.194;2022-08-11T12:35:04;31.60;48.90
21992;DHT22;11160;51.576;0.194;2022-08-11T12:37:51;32.00;48.70
21992;DHT22;11160;51.576;0.194;2022-08-11T12:40:37;32.20;48.50
21992;DHT22;11160;51.576;0.194;2022-08-11T12:43:44;32.30;48.40
21992;DHT22;11160;51.576;0.194;2022-08-11T12:46:36;32.30;47.80
21992;DHT22;11160;51.576;0.194;2022-08-11T12:49:13;32.30;47.20
21992;DHT22;11160;51.576;0.194;2022-08-11T12:52:08;32.40;46.30
21992;DHT22;11160;51.576;0.194;2022-08-11T12:54:47;32.80;45.40
21992;DHT22;11160;51.576;0.194;2022-08-11T13:00:15;33.00;44.30
21992;DHT22;11160;51.576;0.194;2022-08-11T13:03:02;33.10;44.70
21992;DHT22;11160;51.576;0.194;2022-08-11T13:05:53;33.30;44.30
21992;DHT22;11160;51.576;0.194;2022-08-11T13:08:23;33.50;44.00
21992;DHT22;11160;51.576;0.194;2022-08-11T13:10:52;33.70;44.30
21992;DHT22;11160;51.576;0.194;2022-08-11T13:13:39;33.90;43.90
21992;DHT22;11160;51.576;0.194;2022-08-11T13:16:30;34.20;43.70
21992;DHT22;11160;51.576;0.194;2022-08-11T13:18:59;34.50;42.40
21992;DHT22;11160;51.576;0.194;2022-08-11T13:21:28;34.80;42.60
21992;DHT22;11160;51.576;0.194;2022-08-11T13:23:56;35.00;42.10
21992;DHT22;11160;51.576;0.194;2022-08-11T13:26:33;35.30;40.90
21992;DHT22;11160;51.576;0.194;2022-08-11T13:29:21;35.50;40.00
21992;DHT22;11160;51.576;0.194;2022-08-11T13:31:50;35.60;39.40
21992;DHT22;11160;51.576;0.194;2022-08-11T13:34:19;35.80;39.70
21992;DHT22;11160;51.576;0.194;2022-08-11T13:36:52;35.90;39.40
21992;DHT22;11160;51.576;0.194;2022-08-11T13:39:25;36.10;38.80
21992;DHT22;11160;51.576;0.194;2022-08-11T13:41:58;35.90;39.10
21992;DHT22;11160;51.576;0.194;2022-08-11T13:44:28;35.80;39.00
21992;DHT22;11160;51.576;0.194;2022-08-11T13:46:58;35.70;39.00
21992;DHT22;11160;51.576;0.194;2022-08-11T13:49:35;35.60;39.00
21992;DHT22;11160;51.576;0.194;2022-08-11T13:52:09;35.50;38.30
21992;DHT22;11160;51.576;0.194;2022-08-11T13:54:39;35.60;38.30
21992;DHT22;11160;51.576;0.194;2022-08-11T13:57:08;35.80;38.20
21992;DHT22;11160;51.576;0.194;2022-08-11T13:59:57;35.80;37.70
21992;DHT22;11160;51.576;0.194;2022-08-11T14:02:42;35.90;37.30
21992;DHT22;11160;51.576;0.194;2022-08-11T14:05:31;35.80;37.20
21992;DHT22;11160;51.576;0.194;2022-08-11T14:08:02;35.80;35.60
21992;DHT22;11160;51.576;0.194;2022-08-11T14:10:32;35.50;36.30
21992;DHT22;11160;51.576;0.194;2022-08-11T14:13:05;35.40;37.60
21992;DHT22;11160;51.576;0.194;2022-08-11T14:15:52;35.30;36.70
21992;DHT22;11160;51.576;0.194;2022-08-11T14:18:25;35.20;37.20
21992;DHT22;11160;51.576;0.194;2022-08-11T14:21:01;35.20;37.20
21992;DHT22;11160;51.576;0.194;2022-08-11T14:23:49;35.00;37.30
21992;DHT22;11160;51.576;0.194;2022-08-11T14:26:21;34.80;37.40
21992;DHT22;11160;51.576;0.194;2022-08-11T14:29:12;34.70;37.50
21992;DHT22;11160;51.576;0.194;2022-08-11T14:31:47;34.50;37.00
21992;DHT22;11160;51.576;0.194;2022-08-11T14:34:18;34.40;37.30
21992;DHT22;11160;51.576;0.194;2022-08-11T14:36:51;34.30;37.50
21992;DHT22;11160;51.576;0.194;2022-08-11T14:39:27;34.20;37.70
21992;DHT22;11160;51.576;0.194;2022-08-11T14:42:02;34.10;37.80
21992;DHT22;11160;51.576;0.194;2022-08-11T14:44:52;34.00;37.90
21992;DHT22;11160;51.576;0.194;2022-08-11T14:47:41;33.80;38.10
21992;DHT22;11160;51.576;0.194;2022-08-11T14:50:14;33.60;37.80
21992;DHT22;11160;51.576;0.194;2022-08-11T14:52:48;33.50;38.00
21992;DHT22;11160;51.576;0.194;2022-08-11T14:55:17;33.40;38.00
21992;DHT22;11160;51.576;0.194;2022-08-11T14:58:10;33.30;38.20
21992;DHT22;11160;51.576;0.194;2022-08-11T15:00:40;33.10;38.60
21992;DHT22;11160;51.576;0.194;2022-08-11T15:03:10;33.10;38.50
21992;DHT22;11160;51.576;0.194;2022-08-11T15:05:59;32.90;38.40
21992;DHT22;11160;51.576;0.194;2022-08-11T15:08:30;32.80;38.10
21992;DHT22;11160;51.576;0.194;2022-08-11T15:11:19;32.70;39.40
21992;DHT22;11160;51.576;0.194;2022-08-11T15:14:07;32.60;38.60
21992;DHT22;11160;51.576;0.194;2022-08-11T15:16:39;32.50;38.90
21992;DHT22;11160;51.576;0.194;2022-08-11T15:19:25;32.40;38.90
21992;DHT22;11160;51.576;0.194;2022-08-11T15:22:02;32.30;39.00
21992;DHT22;11160;51.576;0.194;2022-08-11T15:25:01;32.20;38.70
21992;DHT22;11160;51.576;0.194;2022-08-11T15:27:29;32.10;38.70
21992;DHT22;11160;51.576;0.194;2022-08-11T15:30:18;32.10;39.70
21992;DHT22;11160;51.576;0.194;2022-08-11T15:33:07;32.00;39.20
21992;DHT22;11160;51.576;0.194;2022-08-11T15:35:55;31.90;39.10
21992;DHT22;11160;51.576;0.194;2022-08-11T15:38:54;31.90;39.40
21992;DHT22;11160;51.576;0.194;2022-08-11T15:41:30;31.90;39.80
21992;DHT22;11160;51.576;0.194;2022-08-11T15:44:29;31.80;39.50
21992;DHT22;11160;51.576;0.194;2022-08-11T15:47:45;31.70;39.70
21992;DHT22;11160;51.576;0.194;2022-08-11T15:50:18;31.70;39.90
21992;DHT22;11160;51.576;0.194;2022-08-11T15:52:52;31.60;39.60
21992;DHT22;11160;51.576;0.194;2022-08-11T15:55:23;31.60;39.80
21992;DHT22;11160;51.576;0.194;2022-08-11T15:57:52;31.60;39.90
21992;DHT22;11160;51.576;0.194;2022-08-11T16:00:40;31.50;40.00
21992;DHT22;11160;51.576;0.194;2022-08-11T16:03:46;31.50;39.90
21992;DHT22;11160;51.576;0.194;2022-08-11T16:06:53;31.50;40.10
21992;DHT22;11160;51.576;0.194;2022-08-11T16:10:11;31.40;40.00
21992;DHT22;11160;51.576;0.194;2022-08-11T16:12:34;31.30;40.30
21992;DHT22;11160;51.576;0.194;2022-08-11T16:15:09;31.30;40.70
21992;DHT22;11160;51.576;0.194;2022-08-11T16:17:58;31.20;40.40
21992;DHT22;11160;51.576;0.194;2022-08-11T16:20:28;31.20;40.70
21992;DHT22;11160;51.576;0.194;2022-08-11T16:22:59;31.20;40.40
21992;DHT22;11160;51.576;0.194;2022-08-11T16:25:32;31.10;40.50
21992;DHT22;11160;51.576;0.194;2022-08-11T16:28:21;31.10;40.40
21992;DHT22;11160;51.576;0.194;2022-08-11T16:30:50;31.00;40.50
21992;DHT22;11160;51.576;0.194;2022-08-11T16:33:19;31.00;40.60
21992;DHT22;11160;51.576;0.194;2022-08-11T16:36:10;31.00;40.90
21992;DHT22;11160;51.576;0.194;2022-08-11T16:38:59;30.90;40.60
21992;DHT22;11160;51.576;0.194;2022-08-11T16:41:30;30.90;40.90
21992;DHT22;11160;51.576;0.194;2022-08-11T16:44:17;30.80;40.90
21992;DHT22;11160;51.576;0.194;2022-08-11T16:47:12;30.80;41.10
21992;DHT22;11160;51.576;0.194;2022-08-11T16:49:46;30.70;40.80
21992;DHT22;11160;51.576;0.194;2022-08-11T16:52:20;30.70;40.80
21992;DHT22;11160;51.576;0.194;2022-08-11T16:54:48;30.70;41.00
21992;DHT22;11160;51.576;0.194;2022-08-11T16:57:25;30.60;40.90
21992;DHT22;11160;51.576;0.194;2022-08-11T17:00:14;30.60;40.90
21992;DHT22;11160;51.576;0.194;2022-08-11T17:02:48;30.50;40.90
21992;DHT22;11160;51.576;0.194;2022-08-11T17:05:37;30.50;40.90
21992;DHT22;11160;51.576;0.194;2022-08-11T17:08:32;30.40;41.20
21992;DHT22;11160;51.576;0.194;2022-08-11T17:11:30;30.40;40.90
21992;DHT22;11160;51.576;0.194;2022-08-11T17:14:21;30.40;41.30
21992;DHT22;11160;51.576;0.194;2022-08-11T17:17:15;30.30;41.60
21992;DHT22;11160;51.576;0.194;2022-08-11T17:19:48;30.20;41.40
21992;DHT22;11160;51.576;0.194;2022-08-11T17:22:36;30.20;41.60
21992;DHT22;11160;51.576;0.194;2022-08-11T17:25:25;30.10;41.50
21992;DHT22;11160;51.576;0.194;2022-08-11T17:27:55;30.10;42.10
21992;DHT22;11160;51.576;0.194;2022-08-11T17:30:22;30.10;42.10
21992;DHT22;11160;51.576;0.194;2022-08-11T17:33:13;30.10;42.10
21992;DHT22;11160;51.576;0.194;2022-08-11T17:36:00;30.00;41.80
21992;DHT22;11160;51.576;0.194;2022-08-11T17:38:29;30.00;42.00
21992;DHT22;11160;51.576;0.194;2022-08-11T17:41:00;29.90;42.20
21992;DHT22;11160;51.576;0.194;2022-08-11T17:43:50;29.90;41.90
21992;DHT22;11160;51.576;0.194;2022-08-11T17:46:38;29.90;42.10
21992;DHT22;11160;51.576;0.194;2022-08-11T17:49:33;29.80;42.40
21992;DHT22;11160;51.576;0.194;2022-08-11T17:52:05;29.80;42.70
21992;DHT22;11160;51.576;0.194;2022-08-11T17:54:52;29.80;42.80
21992;DHT22;11160;51.576;0.194;2022-08-11T17:57:40;29.80;42.90
21992;DHT22;11160;51.576;0.194;2022-08-11T18:00:27;29.70;42.50
21992;DHT22;11160;51.576;0.194;2022-08-11T18:02:57;29.60;43.00
21992;DHT22;11160;51.576;0.194;2022-08-11T18:05:45;29.60;43.00
21992;DHT22;11160;51.576;0.194;2022-08-11T18:08:13;29.50;42.50
21992;DHT22;11160;51.576;0.194;2022-08-11T18:11:02;29.50;42.70
21992;DHT22;11160;51.576;0.194;2022-08-11T18:14:09;29.50;42.60
21992;DHT22;11160;51.576;0.194;2022-08-11T18:16:56;29.50;43.10
21992;DHT22;11160;51.576;0.194;2022-08-11T18:19:41;29.50;42.80
21992;DHT22;11160;51.576;0.194;2022-08-11T18:22:35;29.50;42.80
21992;DHT22;11160;51.576;0.194;2022-08-11T18:25:36;29.40;42.90
21992;DHT22;11160;51.576;0.194;2022-08-11T18:28:26;29.40;42.90
21992;DHT22;11160;51.576;0.194;2022-08-11T18:31:15;29.30;42.90
21992;DHT22;11160;51.576;0.194;2022-08-11T18:34:05;29.30;42.40
21992;DHT22;11160;51.576;0.194;2022-08-11T18:37:02;29.20;42.40
21992;DHT22;11160;51.576;0.194;2022-08-11T18:40:03;29.20;42.70
21992;DHT22;11160;51.576;0.194;2022-08-11T18:42:50;29.20;42.50
21992;DHT22;11160;51.576;0.194;2022-08-11T18:45:39;29.20;42.80
21992;DHT22;11160;51.576;0.194;2022-08-11T18:48:35;29.10;42.70
21992;DHT22;11160;51.576;0.194;2022-08-11T18:51:24;29.10;42.50
21992;DHT22;11160;51.576;0.194;2022-08-11T18:54:11;29.00;42.40
21992;DHT22;11160;51.576;0.194;2022-08-11T18:57:01;28.90;42.70
21992;DHT22;11160;51.576;0.194;2022-08-11T18:59:48;28.90;43.00
21992;DHT22;11160;51.576;0.194;2022-08-11T19:02:36;28.80;42.80
21992;DHT22;11160;51.576;0.194;2022-08-11T19:05:23;28.80;42.70
21992;DHT22;11160;51.576;0.194;2022-08-11T19:08:33;28.80;42.80
21992;DHT22;11160;51.576;0.194;2022-08-11T19:11:23;28.70;43.10
21992;DHT22;11160;51.576;0.194;2022-08-11T19:14:11;28.60;43.20
21992;DHT22;11160;51.576;0.194;2022-08-11T19:16:59;28.50;43.20
21992;DHT22;11160;51.576;0.194;2022-08-11T19:20:09;28.50;43.50
21992;DHT22;11160;51.576;0.194;2022-08-11T19:22:55;28.40;43.70
21992;DHT22;11160;51.576;0.194;2022-08-11T19:25:43;28.30;44.10
21992;DHT22;11160;51.576;0.194;2022-08-11T19:28:30;28.30;44.00
21992;DHT22;11160;51.576;0.194;2022-08-11T19:31:17;28.20;44.30
21992;DHT22;11160;51.576;0.194;2022-08-11T19:34:12;28.10;44.10
21992;DHT22;11160;51.576;0.194;2022-08-11T19:36:58;28.10;44.30
21992;DHT22;11160;51.576;0.194;2022-08-11T19:39:57;28.00;44.40
21992;DHT22;11160;51.576;0.194;2022-08-11T19:42:44;27.90;44.70
21992;DHT22;11160;51.576;0.194;2022-08-11T19:45:54;27.90;44.90
21992;DHT22;11160;51.576;0.194;2022-08-11T19:48:42;27.90;44.70
21992;DHT22;11160;51.576;0.194;2022-08-11T19:51:29;27.80;45.20
21992;DHT22;11160;51.576;0.194;2022-08-11T19:54:26;27.70;45.40
21992;DHT22;11160;51.576;0.194;2022-08-11T19:57:13;27.60;45.70
21992;DHT22;11160;51.576;0.194;2022-08-11T20:00:13;27.60;45.80
21992;DHT22;11160;51.576;0.194;2022-08-11T20:03:01;27.60;46.20
21992;DHT22;11160;51.576;0.194;2022-08-11T20:05:49;27.50;46.40
21992;DHT22;11160;51.576;0.194;2022-08-11T20:08:39;27.40;46.70
21992;DHT22;11160;51.576;0.194;2022-08-11T20:11:30;27.40;46.70